Terminal Aerodrome Forecast
Issued by NWS

Home | Current Version | Previous Version | Text Only | Print | Product List | Glossary Off
Versions: 1 2 3 4 5 6 7 8 9 10 11 12 13 14 15 16 17

000
FTUS43 KGRB 261738
TAFMTW
TAF
KMTW 261738Z 2618/2718 14006KT 6SM BR SCT030 BKN100
      TEMPO 2618/2622 2SM BR OVC004
     FM270300 19003KT 6SM BR SCT100
      TEMPO 2708/2712 2SM BR OVC003
     FM271400 19005KT P6SM SCT100=

USA.gov is the U.S. government's official web portal to all federal, state and local government web resources and services.